sensor_id;sensor_type;location;lat;lon;timestamp;pressure;altitude;pressure_sealevel;temperature;humidity
75409;BME280;63979;55.644;37.734;2023-11-22T00:03:23;100203.16;;;-6.54;64.23
75409;BME280;63979;55.644;37.734;2023-11-22T00:08:27;100221.44;;;-6.37;63.52
75409;BME280;63979;55.644;37.734;2023-11-22T00:13:27;100229.25;;;-6.30;63.65
75409;BME280;63979;55.644;37.734;2023-11-22T00:18:28;100216.38;;;-6.16;63.12
75409;BME280;63979;55.644;37.734;2023-11-22T00:23:30;100194.69;;;-6.21;63.16
75409;BME280;63979;55.644;37.734;2023-11-22T00:28:30;100210.31;;;-6.13;62.84
75409;BME280;63979;55.644;37.734;2023-11-22T00:33:31;100212.09;;;-6.02;63.08
75409;BME280;63979;55.644;37.734;2023-11-22T00:38:32;100214.75;;;-5.89;62.48
75409;BME280;63979;55.644;37.734;2023-11-22T00:43:36;100200.88;;;-5.85;62.91
75409;BME280;63979;55.644;37.734;2023-11-22T00:48:37;100179.19;;;-6.03;62.14
75409;BME280;63979;55.644;37.734;2023-11-22T00:53:38;100167.03;;;-6.07;61.78
75409;BME280;63979;55.644;37.734;2023-11-22T00:58:39;100202.63;;;-5.84;62.18
75409;BME280;63979;55.644;37.734;2023-11-22T01:03:39;100206.97;;;-5.80;61.90
75409;BME280;63979;55.644;37.734;2023-11-22T01:08:40;100211.31;;;-5.70;62.09
75409;BME280;63979;55.644;37.734;2023-11-22T01:13:41;100194.84;;;-5.77;61.95
75409;BME280;63979;55.644;37.734;2023-11-22T01:18:43;100180.06;;;-5.94;61.63
75409;BME280;63979;55.644;37.734;2023-11-22T01:23:46;100200.91;;;-5.79;61.77
75409;BME280;63979;55.644;37.734;2023-11-22T01:28:47;100186.13;;;-5.97;61.80
75409;BME280;63979;55.644;37.734;2023-11-22T01:33:48;100191.38;;;-5.80;61.16
75409;BME280;63979;55.644;37.734;2023-11-22T01:38:48;100183.56;;;-5.77;61.40
75409;BME280;63979;55.644;37.734;2023-11-22T01:43:51;100180.97;;;-5.86;60.92
75409;BME280;63979;55.644;37.734;2023-11-22T01:48:53;100197.44;;;-5.77;61.46
75409;BME280;63979;55.644;37.734;2023-11-22T01:53:56;100191.38;;;-5.71;61.32
75409;BME280;63979;55.644;37.734;2023-11-22T01:58:58;100197.44;;;-5.78;61.04
75409;BME280;63979;55.644;37.734;2023-11-22T02:04:00;100200.91;;;-5.79;61.51
75409;BME280;63979;55.644;37.734;2023-11-22T02:09:01;100187.03;;;-5.77;61.63
75409;BME280;63979;55.644;37.734;2023-11-22T02:14:02;100190.50;;;-5.75;62.19
75409;BME280;63979;55.644;37.734;2023-11-22T02:19:04;100190.50;;;-5.75;62.37
75409;BME280;63979;55.644;37.734;2023-11-22T02:24:27;100204.38;;;-5.76;62.37
75409;BME280;63979;55.644;37.734;2023-11-22T02:29:28;100187.00;;;-5.87;62.50
75409;BME280;63979;55.644;37.734;2023-11-22T02:34:29;100196.56;;;-5.73;62.66
75409;BME280;63979;55.644;37.734;2023-11-22T02:45:05;100212.16;;;-5.76;63.01
75409;BME280;63979;55.644;37.734;2023-11-22T02:50:07;100192.25;;;-5.74;62.38
75409;BME280;63979;55.644;37.734;2023-11-22T02:55:09;100202.66;;;-5.65;62.32
75409;BME280;63979;55.644;37.734;2023-11-22T03:00:10;100210.47;;;-5.57;62.37
75409;BME280;63979;55.644;37.734;2023-11-22T03:05:15;100217.44;;;-5.50;62.37
75409;BME280;63979;55.644;37.734;2023-11-22T03:10:16;100208.78;;;-5.47;61.55
75409;BME280;63979;55.644;37.734;2023-11-22T03:15:18;100217.44;;;-5.54;61.27
75409;BME280;63979;55.644;37.734;2023-11-22T03:20:19;100220.06;;;-5.47;61.13
75409;BME280;63979;55.644;37.734;2023-11-22T03:25:20;100177.53;;;-5.64;61.56
75409;BME280;63979;55.644;37.734;2023-11-22T03:30:21;100214.84;;;-5.47;61.06
75409;BME280;63979;55.644;37.734;2023-11-22T03:35:22;100220.91;;;-5.54;61.46
75409;BME280;63979;55.644;37.734;2023-11-22T03:40:22;100211.31;;;-5.64;60.49
75409;BME280;63979;55.644;37.734;2023-11-22T03:45:23;100214.78;;;-5.62;60.82
75409;BME280;63979;55.644;37.734;2023-11-22T03:50:27;100219.19;;;-5.55;60.26
75409;BME280;63979;55.644;37.734;2023-11-22T03:55:28;100211.31;;;-5.70;60.31
75409;BME280;63979;55.644;37.734;2023-11-22T04:00:28;100235.59;;;-5.62;60.19
75409;BME280;63979;55.644;37.734;2023-11-22T04:05:29;100238.25;;;-5.53;60.08
75409;BME280;63979;55.644;37.734;2023-11-22T04:10:30;100183.56;;;-5.80;60.12
75409;BME280;63979;55.644;37.734;2023-11-22T04:15:31;100213.06;;;-5.69;60.15
75409;BME280;63979;55.644;37.734;2023-11-22T04:20:32;100230.41;;;-5.60;60.33
75409;BME280;63979;55.644;37.734;2023-11-22T04:25:33;100227.78;;;-5.67;59.69
75409;BME280;63979;55.644;37.734;2023-11-22T04:30:34;100219.09;;;-5.76;60.15
75409;BME280;63979;55.644;37.734;2023-11-22T04:35:35;100232.13;;;-5.69;60.06
75409;BME280;63979;55.644;37.734;2023-11-22T04:40:38;100226.03;;;-5.72;59.50
75409;BME280;63979;55.644;37.734;2023-11-22T04:45:38;100226.91;;;-5.73;59.29
75409;BME280;63979;55.644;37.734;2023-11-22T04:50:39;100234.72;;;-5.62;59.73
75409;BME280;63979;55.644;37.734;2023-11-22T04:55:40;100182.66;;;-5.96;59.50
75409;BME280;63979;55.644;37.734;2023-11-22T05:00:41;100180.94;;;-5.91;59.57
75409;BME280;63979;55.644;37.734;2023-11-22T05:05:42;100239.94;;;-5.56;59.62
75409;BME280;63979;55.644;37.734;2023-11-22T05:10:42;100260.69;;;-5.72;59.87
75409;BME280;63979;55.644;37.734;2023-11-22T05:15:44;100262.44;;;-5.74;59.93
75409;BME280;63979;55.644;37.734;2023-11-22T05:20:45;100215.53;;;-6.04;59.72
75409;BME280;63979;55.644;37.734;2023-11-22T05:25:48;100266.78;;;-5.70;59.88
75409;BME280;63979;55.644;37.734;2023-11-22T05:30:49;100274.59;;;-5.67;59.39
75409;BME280;63979;55.644;37.734;2023-11-22T05:35:50;100255.47;;;-5.81;59.70
75409;BME280;63979;55.644;37.734;2023-11-22T05:40:51;100274.59;;;-5.62;61.12
75409;BME280;63979;55.644;37.734;2023-11-22T05:45:52;100222.56;;;-5.89;59.91
75409;BME280;63979;55.644;37.734;2023-11-22T05:50:53;100245.09;;;-5.75;59.51
75409;BME280;63979;55.644;37.734;2023-11-22T05:55:54;100272.00;;;-5.56;59.58
75409;BME280;63979;55.644;37.734;2023-11-22T06:00:55;100277.25;;;-5.54;59.72
75409;BME280;63979;55.644;37.734;2023-11-22T06:05:56;100287.66;;;-5.50;58.67
75409;BME280;63979;55.644;37.734;2023-11-22T06:10:58;100272.06;;;-5.47;58.32
75409;BME280;63979;55.644;37.734;2023-11-22T06:16:00;100265.13;;;-5.54;57.75
75409;BME280;63979;55.644;37.734;2023-11-22T06:21:00;100272.06;;;-5.53;57.74
75409;BME280;63979;55.644;37.734;2023-11-22T06:26:01;100232.09;;;-5.73;57.36
75409;BME280;63979;55.644;37.734;2023-11-22T06:31:02;100274.66;;;-5.48;57.31
75409;BME280;63979;55.644;37.734;2023-11-22T06:36:04;100286.81;;;-5.37;58.04
75409;BME280;63979;55.644;37.734;2023-11-22T06:41:05;100278.13;;;-5.45;57.90
75409;BME280;63979;55.644;37.734;2023-11-22T06:46:07;100283.34;;;-5.49;57.55
75409;BME280;63979;55.644;37.734;2023-11-22T06:51:08;100285.84;;;-5.65;56.86
75409;BME280;63979;55.644;37.734;2023-11-22T06:56:09;100293.72;;;-5.52;57.30
75409;BME280;63979;55.644;37.734;2023-11-22T07:01:11;100300.66;;;-5.47;56.86
75409;BME280;63979;55.644;37.734;2023-11-22T07:06:11;100300.66;;;-5.47;55.66
75409;BME280;63979;55.644;37.734;2023-11-22T07:11:12;100309.34;;;-5.40;57.12
75409;BME280;63979;55.644;37.734;2023-11-22T07:16:14;100307.63;;;-5.44;56.39
75409;BME280;63979;55.644;37.734;2023-11-22T07:21:15;100311.13;;;-5.22;56.18
75409;BME280;63979;55.644;37.734;2023-11-22T07:26:17;100320.72;;;-5.18;56.12
75409;BME280;63979;55.644;37.734;2023-11-22T07:31:18;100288.63;;;-5.16;55.86
75409;BME280;63979;55.644;37.734;2023-11-22T07:36:19;100309.47;;;-5.07;54.43
75409;BME280;63979;55.644;37.734;2023-11-22T07:41:21;100318.38;;;-2.56;49.84
75409;BME280;63979;55.644;37.734;2023-11-22T07:46:21;100277.81;;;2.19;38.73
75409;BME280;63979;55.644;37.734;2023-11-22T07:51:22;100288.59;;;5.94;30.73
75409;BME280;63979;55.644;37.734;2023-11-22T07:56:24;100297.91;;;7.94;27.44
75409;BME280;63979;55.644;37.734;2023-11-22T08:01:25;100292.66;;;8.79;25.80
75409;BME280;63979;55.644;37.734;2023-11-22T08:06:26;100293.88;;;8.04;26.73
75409;BME280;63979;55.644;37.734;2023-11-22T08:11:30;100294.03;;;5.91;29.33
75409;BME280;63979;55.644;37.734;2023-11-22T08:16:32;100298.31;;;3.57;32.33
75409;BME280;63979;55.644;37.734;2023-11-22T08:21:38;100293.69;;;0.68;37.36
75409;BME280;63979;55.644;37.734;2023-11-22T08:26:40;100299.06;;;-0.30;40.68
75409;BME280;63979;55.644;37.734;2023-11-22T08:31:41;100298.16;;;-0.85;41.29
75409;BME280;63979;55.644;37.734;2023-11-22T08:36:41;100245.06;;;-1.59;43.42
75409;BME280;63979;55.644;37.734;2023-11-22T08:41:42;100295.00;;;-1.79;43.91
75409;BME280;63979;55.644;37.734;2023-11-22T08:46:43;100292.81;;;-1.39;43.21
75409;BME280;63979;55.644;37.734;2023-11-22T08:51:44;100285.13;;;0.15;40.63
75409;BME280;63979;55.644;37.734;2023-11-22T08:56:45;100275.09;;;2.23;35.54
75409;BME280;63979;55.644;37.734;2023-11-22T09:01:50;100274.31;;;3.09;33.91
75409;BME280;63979;55.644;37.734;2023-11-22T09:06:50;100267.31;;;6.16;29.99
75409;BME280;63979;55.644;37.734;2023-11-22T09:11:51;100261.97;;;6.57;27.94
75409;BME280;63979;55.644;37.734;2023-11-22T09:16:52;100268.41;;;5.26;29.79
75409;BME280;63979;55.644;37.734;2023-11-22T09:21:55;100283.00;;;4.20;31.97
75409;BME280;63979;55.644;37.734;2023-11-22T09:26:56;100283.47;;;2.37;34.31
75409;BME280;63979;55.644;37.734;2023-11-22T09:31:56;100288.13;;;1.95;35.57
75409;BME280;63979;55.644;37.734;2023-11-22T09:36:57;100265.47;;;1.18;37.14
75409;BME280;63979;55.644;37.734;2023-11-22T09:41:58;100279.44;;;0.81;38.77
75409;BME280;63979;55.644;37.734;2023-11-22T09:47:00;100289.00;;;0.42;40.38
75409;BME280;63979;55.644;37.734;2023-11-22T09:52:03;100286.88;;;0.16;40.03
75409;BME280;63979;55.644;37.734;2023-11-22T09:57:05;100285.94;;;-0.29;40.63
75409;BME280;63979;55.644;37.734;2023-11-22T10:02:09;100289.88;;;-0.56;42.15
75409;BME280;63979;55.644;37.734;2023-11-22T10:07:10;100279.69;;;-0.76;41.84
75409;BME280;63979;55.644;37.734;2023-11-22T10:12:12;100274.56;;;-0.83;41.83
75409;BME280;63979;55.644;37.734;2023-11-22T10:17:13;100275.41;;;-0.27;41.97
75409;BME280;63979;55.644;37.734;2023-11-22T10:22:17;100270.69;;;0.81;39.04
75409;BME280;63979;55.644;37.734;2023-11-22T10:27:19;100273.69;;;1.41;38.44
75409;BME280;63979;55.644;37.734;2023-11-22T10:32:20;100236.50;;;0.82;37.98
75409;BME280;63979;55.644;37.734;2023-11-22T10:37:21;100282.91;;;0.40;40.79
75409;BME280;63979;55.644;37.734;2023-11-22T10:42:25;100285.69;;;-0.15;40.85
75409;BME280;63979;55.644;37.734;2023-11-22T10:47:28;100255.88;;;-0.11;41.88
75409;BME280;63979;55.644;37.734;2023-11-22T10:52:31;100283.47;;;0.11;41.14
75409;BME280;63979;55.644;37.734;2023-11-22T10:57:39;100272.00;;;-0.33;42.55
75409;BME280;63979;55.644;37.734;2023-11-22T11:02:45;100284.47;;;-1.02;43.47
75409;BME280;63979;55.644;37.734;2023-11-22T11:07:55;100288.34;;;-1.31;44.83
75409;BME280;63979;55.644;37.734;2023-11-22T11:12:59;100254.59;;;-1.53;45.12
75409;BME280;63979;55.644;37.734;2023-11-22T11:18:01;100271.22;;;-1.59;45.74
75409;BME280;63979;55.644;37.734;2023-11-22T11:23:03;100275.03;;;-1.88;46.17
75409;BME280;63979;55.644;37.734;2023-11-22T11:28:05;100259.31;;;-1.86;46.17
75409;BME280;63979;55.644;37.734;2023-11-22T11:33:13;100236.38;;;-2.44;47.18
75409;BME280;63979;55.644;37.734;2023-11-22T11:38:17;100260.75;;;-2.39;48.01
75409;BME280;63979;55.644;37.734;2023-11-22T11:43:47;100248.81;;;-2.67;48.68
75409;BME280;63979;55.644;37.734;2023-11-22T11:48:51;100257.50;;;-2.65;49.28
75409;BME280;63979;55.644;37.734;2023-11-22T11:53:53;100254.03;;;-2.67;50.08
75409;BME280;63979;55.644;37.734;2023-11-22T11:58:56;100257.47;;;-2.64;49.92
75409;BME280;63979;55.644;37.734;2023-11-22T12:04:02;100255.03;;;-2.87;50.10
75409;BME280;63979;55.644;37.734;2023-11-22T12:09:03;100256.13;;;-3.21;50.93
75409;BME280;63979;55.644;37.734;2023-11-22T12:14:04;100281.38;;;-3.23;51.87
75409;BME280;63979;55.644;37.734;2023-11-22T12:19:05;100268.53;;;-3.66;52.28
75409;BME280;63979;55.644;37.734;2023-11-22T12:24:07;100285.94;;;-3.68;53.60
75409;BME280;63979;55.644;37.734;2023-11-22T12:29:13;100296.38;;;-3.83;54.10
75409;BME280;63979;55.644;37.734;2023-11-22T12:34:15;100293.78;;;-3.77;53.73
75409;BME280;63979;55.644;37.734;2023-11-22T12:39:16;100295.56;;;-3.97;54.61
75409;BME280;63979;55.644;37.734;2023-11-22T12:44:18;100279.13;;;-4.27;55.13
75409;BME280;63979;55.644;37.734;2023-11-22T12:49:19;100289.53;;;-4.24;54.78
75409;BME280;63979;55.644;37.734;2023-11-22T12:54:20;100311.25;;;-4.16;55.24
75409;BME280;63979;55.644;37.734;2023-11-22T12:59:22;100308.63;;;-4.20;55.45
75409;BME280;63979;55.644;37.734;2023-11-22T13:04:23;100311.22;;;-4.20;55.04
75409;BME280;63979;55.644;37.734;2023-11-22T13:09:24;100298.25;;;-4.37;55.13
75409;BME280;63979;55.644;37.734;2023-11-22T13:14:25;100299.97;;;-4.66;55.12
75409;BME280;63979;55.644;37.734;2023-11-22T13:19:27;100268.69;;;-5.05;55.98
75409;BME280;63979;55.644;37.734;2023-11-22T13:24:28;100309.53;;;-4.72;55.06
75409;BME280;63979;55.644;37.734;2023-11-22T13:29:28;100312.13;;;-4.72;55.58
75409;BME280;63979;55.644;37.734;2023-11-22T13:34:29;100303.41;;;-5.01;55.52
75409;BME280;63979;55.644;37.734;2023-11-22T13:39:30;100321.59;;;-5.04;55.95
75409;BME280;63979;55.644;37.734;2023-11-22T13:44:34;100334.63;;;-5.07;54.62
75409;BME280;63979;55.644;37.734;2023-11-22T13:49:34;100331.16;;;-5.09;54.42
75409;BME280;63979;55.644;37.734;2023-11-22T13:54:36;100321.59;;;-5.16;52.66
75409;BME280;63979;55.644;37.734;2023-11-22T13:59:39;100311.13;;;-5.24;53.26
75409;BME280;63979;55.644;37.734;2023-11-22T14:04:41;100283.34;;;-5.43;53.95
75409;BME280;63979;55.644;37.734;2023-11-22T14:09:41;100322.44;;;-5.17;54.39
75409;BME280;63979;55.644;37.734;2023-11-22T14:14:42;100315.53;;;-5.09;54.44
75409;BME280;63979;55.644;37.734;2023-11-22T14:19:43;100310.25;;;-5.26;53.47
75409;BME280;63979;55.644;37.734;2023-11-22T14:24:44;100309.44;;;-5.16;53.87
75409;BME280;63979;55.644;37.734;2023-11-22T14:29:48;100310.22;;;-5.43;53.81
75409;BME280;63979;55.644;37.734;2023-11-22T14:34:50;100317.19;;;-5.36;54.12
75409;BME280;63979;55.644;37.734;2023-11-22T14:39:54;100325.84;;;-5.34;54.18
75409;BME280;63979;55.644;37.734;2023-11-22T14:44:54;100318.03;;;-5.38;53.73
75409;BME280;63979;55.644;37.734;2023-11-22T14:49:55;100305.84;;;-5.53;52.96
75409;BME280;63979;55.644;37.734;2023-11-22T14:54:56;100318.91;;;-5.41;52.07
75409;BME280;63979;55.644;37.734;2023-11-22T15:00:00;100333.63;;;-5.44;52.79
75409;BME280;63979;55.644;37.734;2023-11-22T15:05:01;100319.66;;;-5.58;52.48
75409;BME280;63979;55.644;37.734;2023-11-22T15:10:04;100337.78;;;-5.78;53.49
75409;BME280;63979;55.644;37.734;2023-11-22T15:15:08;100339.56;;;-5.68;52.96
75409;BME280;63979;55.644;37.734;2023-11-22T15:20:09;100342.91;;;-5.93;52.85
75409;BME280;63979;55.644;37.734;2023-11-22T15:25:12;100317.72;;;-6.08;53.10
75409;BME280;63979;55.644;37.734;2023-11-22T15:30:15;100344.69;;;-5.85;53.06
75409;BME280;63979;55.644;37.734;2023-11-22T15:35:19;100340.38;;;-5.81;53.36
75409;BME280;63979;55.644;37.734;2023-11-22T15:40:20;100336.00;;;-5.88;53.66
75409;BME280;63979;55.644;37.734;2023-11-22T15:45:22;100339.53;;;-5.73;53.94
75409;BME280;63979;55.644;37.734;2023-11-22T15:50:23;100337.75;;;-5.84;54.39
75409;BME280;63979;55.644;37.734;2023-11-22T15:55:25;100331.75;;;-5.70;54.68
75409;BME280;63979;55.644;37.734;2023-11-22T16:00:26;100330.97;;;-5.55;54.24
75409;BME280;63979;55.644;37.734;2023-11-22T16:05:27;100324.88;;;-5.55;55.15
75409;BME280;63979;55.644;37.734;2023-11-22T16:10:29;100329.25;;;-5.54;54.90
75409;BME280;63979;55.644;37.734;2023-11-22T16:15:30;100320.53;;;-5.58;55.63
75409;BME280;63979;55.644;37.734;2023-11-22T16:20:31;100304.84;;;-5.85;56.11
75409;BME280;63979;55.644;37.734;2023-11-22T16:25:32;100317.00;;;-5.78;56.24
75409;BME280;63979;55.644;37.734;2023-11-22T16:30:33;100317.00;;;-5.78;55.81
75409;BME280;63979;55.644;37.734;2023-11-22T16:35:34;100323.91;;;-5.83;56.68
75409;BME280;63979;55.644;37.734;2023-11-22T16:40:35;100314.41;;;-5.78;56.49
75409;BME280;63979;55.644;37.734;2023-11-22T16:45:36;100323.88;;;-5.91;56.89
75409;BME280;63979;55.644;37.734;2023-11-22T16:50:37;100326.53;;;-5.77;57.12
75409;BME280;63979;55.644;37.734;2023-11-22T16:55:38;100325.75;;;-5.59;57.32
75409;BME280;63979;55.644;37.734;2023-11-22T17:00:39;100322.34;;;-5.46;56.50
75409;BME280;63979;55.644;37.734;2023-11-22T17:05:40;100309.38;;;-5.36;57.22
75409;BME280;63979;55.644;37.734;2023-11-22T17:10:40;100311.13;;;-5.27;56.69
75409;BME280;63979;55.644;37.734;2023-11-22T17:15:41;100288.63;;;-5.19;56.75
75409;BME280;63979;55.644;37.734;2023-11-22T17:20:44;100298.19;;;-5.10;56.62
75409;BME280;63979;55.644;37.734;2023-11-22T17:25:44;100279.09;;;-5.18;56.21
75409;BME280;63979;55.644;37.734;2023-11-22T17:30:45;100273.03;;;-5.11;56.35
75409;BME280;63979;55.644;37.734;2023-11-22T17:35:46;100285.19;;;-5.04;56.16
75409;BME280;63979;55.644;37.734;2023-11-22T17:40:47;100284.31;;;-5.09;56.35
75409;BME280;63979;55.644;37.734;2023-11-22T17:45:49;100223.47;;;-5.57;56.52
75409;BME280;63979;55.644;37.734;2023-11-22T17:50:50;100283.44;;;-5.05;56.62
75409;BME280;63979;55.644;37.734;2023-11-22T17:55:50;100269.56;;;-4.92;56.93
75409;BME280;63979;55.644;37.734;2023-11-22T18:00:51;100273.94;;;-4.82;57.06
75409;BME280;63979;55.644;37.734;2023-11-22T18:05:52;100234.88;;;-5.02;57.18
75409;BME280;63979;55.644;37.734;2023-11-22T18:10:53;100273.94;;;-4.71;56.96
75409;BME280;63979;55.644;37.734;2023-11-22T18:15:54;100263.53;;;-4.77;56.80
75409;BME280;63979;55.644;37.734;2023-11-22T18:20:54;100257.44;;;-4.61;56.72
75409;BME280;63979;55.644;37.734;2023-11-22T18:25:55;100251.34;;;-4.57;57.21
75409;BME280;63979;55.644;37.734;2023-11-22T18:30:56;100251.34;;;-4.52;57.45
75409;BME280;63979;55.644;37.734;2023-11-22T18:35:57;100253.94;;;-4.52;57.21
75409;BME280;63979;55.644;37.734;2023-11-22T18:40:58;100255.69;;;-4.53;57.59
75409;BME280;63979;55.644;37.734;2023-11-22T18:46:04;100254.84;;;-4.50;58.10
75409;BME280;63979;55.644;37.734;2023-11-22T18:51:05;100246.16;;;-4.43;58.58
75409;BME280;63979;55.644;37.734;2023-11-22T18:56:07;100246.16;;;-4.43;59.01
75409;BME280;63979;55.644;37.734;2023-11-22T19:01:08;100252.22;;;-4.36;58.86
75409;BME280;63979;55.644;37.734;2023-11-22T19:06:09;100245.25;;;-4.28;59.89
75409;BME280;63979;55.644;37.734;2023-11-22T19:11:10;100249.59;;;-4.36;59.59
75409;BME280;63979;55.644;37.734;2023-11-22T19:16:13;100242.69;;;-4.68;61.03
75409;BME280;63979;55.644;37.734;2023-11-22T19:21:20;100248.78;;;-4.78;62.28
75409;BME280;63979;55.644;37.734;2023-11-22T19:26:24;100250.50;;;-4.69;63.12
75409;BME280;63979;55.644;37.734;2023-11-22T19:31:26;100241.81;;;-4.72;62.58
75409;BME280;63979;55.644;37.734;2023-11-22T19:36:27;100230.53;;;-4.72;63.56
75409;BME280;63979;55.644;37.734;2023-11-22T19:41:32;100237.47;;;-4.88;63.92
75409;BME280;63979;55.644;37.734;2023-11-22T19:46:33;100245.28;;;-4.74;63.45
75409;BME280;63979;55.644;37.734;2023-11-22T19:51:34;100239.22;;;-4.78;63.33
75409;BME280;63979;55.644;37.734;2023-11-22T19:56:37;100243.56;;;-4.71;63.95
75409;BME280;63979;55.644;37.734;2023-11-22T20:01:40;100235.72;;;-4.54;64.12
75409;BME280;63979;55.644;37.734;2023-11-22T20:06:46;100230.50;;;-4.52;63.16
75409;BME280;63979;55.644;37.734;2023-11-22T20:11:47;100233.13;;;-4.51;61.41
75409;BME280;63979;55.644;37.734;2023-11-22T20:16:48;100204.47;;;-4.48;59.80
75409;BME280;63979;55.644;37.734;2023-11-22T20:21:49;100210.53;;;-4.43;58.24
75409;BME280;63979;55.644;37.734;2023-11-22T20:26:50;100207.09;;;-4.61;57.31
75409;BME280;63979;55.644;37.734;2023-11-22T20:31:51;100199.31;;;-4.75;55.79
75409;BME280;63979;55.644;37.734;2023-11-22T20:36:52;100201.00;;;-4.60;55.31
75409;BME280;63979;55.644;37.734;2023-11-22T20:41:52;100182.81;;;-4.77;55.35
75409;BME280;63979;55.644;37.734;2023-11-22T20:46:53;100197.53;;;-4.58;54.39
75409;BME280;63979;55.644;37.734;2023-11-22T20:51:55;100193.19;;;-4.57;53.12
75409;BME280;63979;55.644;37.734;2023-11-22T20:56:55;100185.38;;;-4.63;52.84
75409;BME280;63979;55.644;37.734;2023-11-22T21:01:56;100181.97;;;-4.84;51.97
75409;BME280;63979;55.644;37.734;2023-11-22T21:06:57;100164.59;;;-4.79;51.22
75409;BME280;63979;55.644;37.734;2023-11-22T21:11:58;100165.47;;;-4.83;52.08
75409;BME280;63979;55.644;37.734;2023-11-22T21:16:59;100151.56;;;-4.71;51.47
75409;BME280;63979;55.644;37.734;2023-11-22T21:21:59;100149.84;;;-4.89;52.59
75409;BME280;63979;55.644;37.734;2023-11-22T21:27:00;100160.25;;;-4.75;53.29
75409;BME280;63979;55.644;37.734;2023-11-22T21:32:01;100149.84;;;-4.74;52.48
75409;BME280;63979;55.644;37.734;2023-11-22T21:37:03;100135.06;;;-4.72;52.53
75409;BME280;63979;55.644;37.734;2023-11-22T21:42:04;100150.72;;;-4.78;50.44
75409;BME280;63979;55.644;37.734;2023-11-22T21:47:05;100151.56;;;-4.92;50.84
75409;BME280;63979;55.644;37.734;2023-11-22T21:52:06;100148.13;;;-5.04;49.35
75409;BME280;63979;55.644;37.734;2023-11-22T21:57:07;100147.28;;;-5.13;49.92
75409;BME280;63979;55.644;37.734;2023-11-22T22:02:07;100155.94;;;-5.17;49.84
75409;BME280;63979;55.644;37.734;2023-11-22T22:07:08;100139.44;;;-5.09;49.72
75409;BME280;63979;55.644;37.734;2023-11-22T22:12:09;100153.31;;;-5.00;50.48
75409;BME280;63979;55.644;37.734;2023-11-22T22:17:10;100134.25;;;-5.09;51.24
75409;BME280;63979;55.644;37.734;2023-11-22T22:22:10;100135.97;;;-5.03;51.95
75409;BME280;63979;55.644;37.734;2023-11-22T22:27:11;100133.38;;;-5.00;51.86
75409;BME280;63979;55.644;37.734;2023-11-22T22:32:12;100092.63;;;-5.19;51.38
75409;BME280;63979;55.644;37.734;2023-11-22T22:37:13;100114.31;;;-5.08;50.32
75409;BME280;63979;55.644;37.734;2023-11-22T22:42:14;100122.97;;;-5.06;49.92
75409;BME280;63979;55.644;37.734;2023-11-22T22:47:15;100099.56;;;-5.15;51.00
75409;BME280;63979;55.644;37.734;2023-11-22T22:52:15;100110.81;;;-5.04;50.96
75409;BME280;63979;55.644;37.734;2023-11-22T22:57:16;100103.91;;;-5.08;50.20
75409;BME280;63979;55.644;37.734;2023-11-22T23:02:17;100098.69;;;-5.05;49.43
75409;BME280;63979;55.644;37.734;2023-11-22T23:07:18;100082.19;;;-5.04;49.35
75409;BME280;63979;55.644;37.734;2023-11-22T23:12:19;100077.84;;;-4.96;49.76
75409;BME280;63979;55.644;37.734;2023-11-22T23:17:20;100087.34;;;-4.87;49.62
75409;BME280;63979;55.644;37.734;2023-11-22T23:22:21;100084.75;;;-4.89;50.06
75409;BME280;63979;55.644;37.734;2023-11-22T23:27:22;100066.56;;;-4.93;49.14
75409;BME280;63979;55.644;37.734;2023-11-22T23:32:23;100066.56;;;-5.01;50.42
75409;BME280;63979;55.644;37.734;2023-11-22T23:37:26;100066.56;;;-4.98;50.93
75409;BME280;63979;55.644;37.734;2023-11-22T23:42:26;100058.78;;;-5.03;52.42
75409;BME280;63979;55.644;37.734;2023-11-22T23:47:28;100066.63;;;-5.15;53.07
75409;BME280;63979;55.644;37.734;2023-11-22T23:52:29;100063.13;;;-5.08;53.40
75409;BME280;63979;55.644;37.734;2023-11-22T23:57:30;100064.00;;;-5.09;55.18
